Time;durP1;ratioP1;P1;durP2;ratioP2;P2;SDS_P1;SDS_P2;PMS_P1;PMS_P2;Temp;Humidity;BMP_temperature;BMP_pressure;BME280_temperature;BME280_humidity;BME280_pressure;Samples;Min_cycle;Max_cycle;Signal;HPM_P1;HPM_P2
2022/09/12 00:02:57;;;;;;;6.38;5.20;;;;;;;21.86;44.96;101608.41;16129194;19;131444;-61
2022/09/12 00:08:19;;;;;;;5.40;4.90;;;;;;;21.84;45.09;101617.03;16129008;19;130060;-61
2022/09/12 00:13:42;;;;;;;6.07;4.75;;;;;;;21.83;45.08;101595.84;16130266;19;129992;-61
2022/09/12 00:19:05;;;;;;;6.75;4.82;;;;;;;21.83;44.93;101595.84;16127146;19;129779;-61
2022/09/12 00:24:27;;;;;;;8.80;4.97;;;;;;;21.83;44.87;101590.28;16127283;19;129045;-61
2022/09/12 00:29:49;;;;;;;7.47;5.00;;;;;;;21.83;44.93;101593.06;16130208;19;129367;-61
2022/09/12 00:35:11;;;;;;;6.30;4.55;;;;;;;21.82;45.31;101588.56;16129235;19;129417;-61
2022/09/12 00:40:33;;;;;;;7.95;5.00;;;;;;;21.82;44.83;101583.00;16126891;19;129664;-61
2022/09/12 00:46:02;;;;;;;5.93;4.20;;;;;;;21.82;44.87;101583.00;16128066;19;129450;-61
2022/09/12 00:51:24;;;;;;;4.78;4.30;;;;;;;21.80;45.16;101577.66;16127532;19;130583;-61
2022/09/12 00:56:48;;;;;;;5.68;4.53;;;;;;;21.80;44.97;101574.88;16126315;19;129715;-61
2022/09/12 01:02:10;;;;;;;6.57;3.97;;;;;;;21.78;45.18;101563.19;16128090;19;130517;-61
2022/09/12 01:07:35;;;;;;;4.53;4.13;;;;;;;21.79;44.85;101564.00;16128301;19;131015;-61
2022/09/12 01:13:03;;;;;;;4.63;4.15;;;;;;;21.79;44.92;101561.22;16126567;19;134096;-61
2022/09/12 01:19:00;;;;;;;4.73;4.00;;;;;;;21.80;44.87;101558.16;16125102;19;129478;-61
2022/09/12 01:24:50;;;;;;;6.47;4.03;;;;;;;21.78;45.16;101553.97;16134188;19;131082;-61
2022/09/12 01:30:42;;;;;;;5.82;4.53;;;;;;;21.76;44.64;101551.44;16143475;19;129678;-61
2022/09/12 01:36:26;;;;;;;4.97;4.00;;;;;;;21.76;44.78;101545.00;16139984;19;129461;-61
2022/09/12 01:42:19;;;;;;;5.03;3.90;;;;;;;21.76;44.78;101540.31;16138410;19;130608;-61
2022/09/12 01:47:49;;;;;;;4.15;3.70;;;;;;;21.75;44.81;101529.41;16140552;19;131157;-61
2022/09/12 01:53:22;;;;;;;4.78;3.90;;;;;;;21.76;44.59;101531.94;16137721;19;129617;-61
2022/09/12 01:59:09;;;;;;;4.07;3.50;;;;;;;21.75;44.78;101519.13;16137964;19;129560;-61
2022/09/12 02:04:38;;;;;;;4.00;3.60;;;;;;;21.74;44.85;101523.00;16137819;19;129399;-61
2022/09/12 02:10:21;;;;;;;3.90;3.47;;;;;;;21.74;44.72;101506.28;16138103;19;130063;-61
2022/09/12 02:15:50;;;;;;;4.15;3.80;;;;;;;21.73;44.94;101510.16;16138419;19;130080;-61
2022/09/12 02:21:12;;;;;;;4.10;3.58;;;;;;;21.72;44.86;101502.91;16134988;19;130309;-60
2022/09/12 02:26:41;;;;;;;4.25;3.58;;;;;;;21.73;44.64;101506.53;16135205;19;129128;-61
2022/09/12 02:32:09;;;;;;;4.88;3.20;;;;;;;21.73;44.57;101512.94;16134545;19;129507;-61
2022/09/12 02:37:46;;;;;;;5.35;3.85;;;;;;;21.71;44.50;101506.78;16135730;19;129080;-61
2022/09/12 02:43:08;;;;;;;5.28;3.58;;;;;;;21.70;44.66;101499.53;16133924;19;129447;-61
2022/09/12 02:48:33;;;;;;;4.30;3.33;;;;;;;21.70;44.49;101493.97;16132885;19;129529;-61
2022/09/12 02:53:56;;;;;;;5.53;3.70;;;;;;;21.69;44.63;101497.84;16135957;19;130025;-61
2022/09/12 02:59:21;;;;;;;5.68;3.42;;;;;;;21.70;44.90;101482.81;16136303;19;129417;-61
2022/09/12 03:05:01;;;;;;;5.05;3.20;;;;;;;21.70;44.83;101485.59;16134015;19;129345;-61
2022/09/12 03:10:34;;;;;;;5.00;3.72;;;;;;;21.69;44.90;101474.72;16131532;19;129588;-61
2022/09/12 03:16:15;;;;;;;4.20;3.20;;;;;;;21.70;44.33;101477.25;16134343;19;130056;-61
2022/09/12 03:21:58;;;;;;;4.25;3.03;;;;;;;21.68;44.38;101479.44;16134993;19;129437;-61
2022/09/12 03:27:27;;;;;;;3.78;3.05;;;;;;;21.67;44.87;101478.59;16132494;19;129478;-61
2022/09/12 03:32:52;;;;;;;3.75;2.80;;;;;;;21.66;44.55;101474.13;16133145;19;128994;-61
2022/09/12 03:38:14;;;;;;;3.47;3.15;;;;;;;21.65;44.49;101474.41;16132865;19;128953;-61
2022/09/12 03:43:36;;;;;;;3.38;3.08;;;;;;;21.66;44.64;101476.91;16130417;19;130243;-61
2022/09/12 03:48:57;;;;;;;3.88;2.95;;;;;;;21.66;44.59;101470.53;16132331;19;129841;-61
2022/09/12 03:54:19;;;;;;;4.03;2.70;;;;;;;21.66;44.64;101476.09;16131747;19;129612;-61
2022/09/12 03:59:40;;;;;;;4.30;3.25;;;;;;;21.65;44.36;101463.25;16133390;19;133420;-61
2022/09/12 04:05:03;;;;;;;3.30;2.85;;;;;;;21.66;44.59;101459.38;16129875;19;130736;-61
2022/09/12 04:10:25;;;;;;;3.40;3.10;;;;;;;21.65;44.54;101457.69;16128901;19;129326;-61
2022/09/12 04:15:56;;;;;;;3.85;2.95;;;;;;;21.65;44.41;101452.13;16127305;19;129755;-61
2022/09/12 04:21:20;;;;;;;3.50;2.97;;;;;;;21.64;44.58;101439.28;16127948;19;129576;-61
2022/09/12 04:26:42;;;;;;;4.23;3.23;;;;;;;21.63;44.30;101445.97;16128358;19;129389;-61
2022/09/12 04:32:04;;;;;;;4.18;2.70;;;;;;;21.63;44.33;101454.31;16128151;19;129285;-61
2022/09/12 04:37:26;;;;;;;4.30;2.70;;;;;;;21.62;44.37;101442.31;16128735;19;129527;-60
2022/09/12 04:42:47;;;;;;;2.92;2.60;;;;;;;21.62;44.25;101444.28;16126425;19;129173;-61
2022/09/12 04:48:09;;;;;;;3.92;2.92;;;;;;;21.61;44.43;101446.19;16124724;19;130415;-61
2022/09/12 04:53:31;;;;;;;3.00;2.60;;;;;;;21.61;44.40;101446.19;16126925;19;129848;-61
2022/09/12 04:58:53;;;;;;;3.45;2.67;;;;;;;21.60;44.54;101440.88;16125688;19;130373;-61
2022/09/12 05:04:15;;;;;;;3.63;2.90;;;;;;;21.59;44.75;101442.00;16125220;19;129640;-60
2022/09/12 05:09:36;;;;;;;3.25;2.45;;;;;;;21.59;44.37;101439.19;16127152;19;129546;-61
2022/09/12 05:14:58;;;;;;;5.50;2.80;;;;;;;21.59;44.29;101450.34;16125672;19;129895;-61
2022/09/12 05:20:20;;;;;;;7.97;2.65;;;;;;;21.57;44.76;101452.53;16123557;19;129615;-61
2022/09/12 05:25:52;;;;;;;8.70;2.63;;;;;;;21.59;44.47;101454.00;16125057;19;129342;-61
2022/09/12 05:31:19;;;;;;;7.18;3.00;;;;;;;21.59;44.53;101454.00;16126365;19;129561;-61
2022/09/12 05:36:41;;;;;;;5.72;2.60;;;;;;;21.60;44.46;101449.25;16124040;19;134799;-61
2022/09/12 05:42:03;;;;;;;5.72;2.88;;;;;;;21.60;44.45;101455.66;16123355;19;129079;-61
2022/09/12 05:47:25;;;;;;;5.82;2.78;;;;;;;21.61;44.63;101478.78;16121179;19;130084;-61
2022/09/12 05:52:46;;;;;;;4.10;2.67;;;;;;;21.58;44.31;101482.91;16121635;19;129554;-61
2022/09/12 05:58:08;;;;;;;4.30;2.70;;;;;;;21.56;44.42;101487.91;16119865;19;129311;-61
2022/09/12 06:03:30;;;;;;;4.50;2.28;;;;;;;21.58;44.35;101484.84;16122743;19;129476;-62
2022/09/12 06:08:55;;;;;;;3.13;2.42;;;;;;;21.59;44.58;101483.75;16131314;19;129043;-62
2022/09/12 06:14:18;;;;;;;3.50;2.22;;;;;;;21.58;44.35;101477.34;16136738;19;128971;-62
2022/09/12 06:19:39;;;;;;;4.03;2.80;;;;;;;21.60;44.30;101477.09;16139467;19;129262;-62
2022/09/12 06:25:01;;;;;;;4.85;2.83;;;;;;;21.64;44.29;101481.06;16141080;19;129811;-62
2022/09/12 06:30:23;;;;;;;5.82;3.17;;;;;;;21.66;44.55;101476.09;16138071;19;129532;-62
2022/09/12 06:35:46;;;;;;;4.72;2.42;;;;;;;21.70;44.25;101465.28;16138176;19;129106;-62
2022/09/12 06:41:11;;;;;;;3.17;2.50;;;;;;;21.74;44.15;101467.31;16138064;19;128993;-63
2022/09/12 06:46:33;;;;;;;3.40;2.50;;;;;;;21.83;44.36;101471.34;16136898;19;129567;-70
2022/09/12 06:51:54;;;;;;;3.35;2.10;;;;;;;21.92;44.05;101473.66;16134680;19;130209;-67
2022/09/12 06:57:16;;;;;;;4.72;2.33;;;;;;;22.00;44.22;101476.03;16134633;19;129815;-68
2022/09/12 07:02:38;;;;;;;4.15;1.92;;;;;;;22.07;44.17;101471.13;16137361;19;129698;-62
2022/09/12 07:08:00;;;;;;;4.38;2.35;;;;;;;22.15;44.07;101474.59;16134872;19;129115;-62
2022/09/12 07:13:22;;;;;;;4.60;2.28;;;;;;;22.21;43.45;101476.34;16135272;19;129601;-62
2022/09/12 07:18:45;;;;;;;6.13;2.17;;;;;;;22.29;43.82;101484.25;16132995;19;129576;-63
2022/09/12 07:24:10;;;;;;;2.30;2.00;;;;;;;22.35;43.61;101474.88;16132795;19;130397;-62
2022/09/12 07:29:32;;;;;;;6.45;2.50;;;;;;;22.41;43.63;101470.22;16133068;19;129398;-62
2022/09/12 07:34:58;;;;;;;3.15;2.35;;;;;;;22.47;43.34;101463.59;16133601;19;129558;-63
2022/09/12 07:40:20;;;;;;;5.40;2.17;;;;;;;22.52;43.72;101460.03;16133761;19;129499;-62
2022/09/12 07:45:42;;;;;;;2.58;2.03;;;;;;;22.58;43.32;101456.19;16133788;19;128931;-62
2022/09/12 07:51:07;;;;;;;3.15;1.83;;;;;;;22.70;43.20;101448.53;16133872;19;129695;-63
2022/09/12 07:56:29;;;;;;;;;;;;;;;22.88;42.96;101447.34;16132134;19;129330;-62
2022/09/12 08:01:56;;;;;;;3.35;2.22;;;;;;;23.04;42.46;101465.09;16134804;19;130286;-62
2022/09/12 08:07:18;;;;;;;2.80;1.90;;;;;;;23.05;42.36;101458.41;16130940;19;129400;-62
2022/09/12 08:12:39;;;;;;;3.83;1.95;;;;;;;23.05;42.52;101458.41;16131329;19;129826;-62
2022/09/12 08:18:01;;;;;;;2.88;1.83;;;;;;;23.04;42.61;101461.47;16128960;19;129593;-62
2022/09/12 08:23:23;;;;;;;4.45;2.40;;;;;;;23.03;42.78;101463.41;16128998;19;130962;-62
2022/09/12 08:28:45;;;;;;;2.80;2.00;;;;;;;23.01;42.89;101462.84;16127460;19;129551;-62
2022/09/12 08:34:07;;;;;;;2.75;1.83;;;;;;;22.99;42.68;101464.22;16126495;19;130178;-62
2022/09/12 08:39:29;;;;;;;2.33;1.50;;;;;;;22.98;42.85;101466.16;16126612;19;129887;-62
2022/09/12 08:45:19;;;;;;;3.55;2.00;;;;;;;22.96;42.43;101465.59;16129286;19;129297;-63
2022/09/12 08:50:43;;;;;;;3.30;2.10;;;;;;;22.94;42.92;101462.22;16130715;19;129649;-63
2022/09/12 08:56:11;;;;;;;2.92;2.05;;;;;;;22.94;43.09;101456.63;16127696;19;130313;-63
2022/09/12 09:01:44;;;;;;;1.65;1.55;;;;;;;22.94;42.87;101461.38;16128256;19;129579;-63
2022/09/12 09:07:29;;;;;;;3.80;1.90;;;;;;;22.93;43.36;101454.13;16125811;19;129076;-62
2022/09/12 09:13:12;;;;;;;3.67;1.83;;;;;;;22.89;42.76;101454.59;16127602;19;130332;-63
2022/09/12 09:18:35;;;;;;;2.55;1.70;;;;;;;22.86;42.89;101457.91;16127616;19;129674;-63
2022/09/12 09:24:08;;;;;;;2.67;1.60;;;;;;;22.86;43.30;101445.91;16127913;19;129502;-63
2022/09/12 09:29:44;;;;;;;2.45;1.60;;;;;;;22.85;42.90;101438.66;16122085;19;129010;-63
2022/09/12 09:35:32;;;;;;;1.75;1.60;;;;;;;22.82;42.98;101426.09;16124131;19;129508;-63
2022/09/12 09:41:13;;;;;;;3.17;1.75;;;;;;;22.78;43.38;101427.69;16127820;19;128977;-63
2022/09/12 09:46:35;;;;;;;1.83;1.45;;;;;;;22.73;43.73;101411.75;16141061;19;129852;-63
2022/09/12 09:51:59;;;;;;;2.28;1.60;;;;;;;22.71;43.76;101400.00;16140776;19;129339;-63
2022/09/12 09:57:52;;;;;;;2.20;1.90;;;;;;;22.68;43.23;101397.75;16140839;19;129901;-63
2022/09/12 10:03:13;;;;;;;1.95;1.70;;;;;;;22.66;43.57;101397.16;16137306;19;129559;-63
2022/09/12 10:08:36;;;;;;;1.63;1.50;;;;;;;22.63;43.64;101389.34;16140182;19;129476;-63
2022/09/12 10:14:00;;;;;;;1.67;1.48;;;;;;;22.61;43.40;101374.81;16140820;19;130070;-63
2022/09/12 10:19:41;;;;;;;1.88;1.55;;;;;;;22.60;43.62;101373.13;16140141;19;129558;-63
2022/09/12 10:25:12;;;;;;;1.50;1.40;;;;;;;22.58;43.84;101369.75;16140394;19;129850;-63
2022/09/12 10:30:34;;;;;;;2.30;1.52;;;;;;;22.54;43.90;101363.00;16141546;19;129302;-63
2022/09/12 10:36:02;;;;;;;2.20;1.70;;;;;;;22.54;43.98;101351.84;16138030;19;130240;-63
2022/09/12 10:41:24;;;;;;;2.15;1.63;;;;;;;22.53;44.01;101350.16;16134939;19;130403;-63
2022/09/12 10:46:46;;;;;;;1.50;1.40;;;;;;;22.50;43.91;101337.59;16136837;19;130600;-63
2022/09/12 10:52:22;;;;;;;1.42;1.33;;;;;;;22.50;44.13;101334.00;16134503;19;130318;-63
2022/09/12 10:57:53;;;;;;;;;;;;;;;22.45;43.90;101340.38;16128131;19;131023;-64
2022/09/12 11:03:23;;;;;;;1.60;1.50;;;;;;;22.48;43.83;101333.41;16123341;19;129337;-62
2022/09/12 11:09:25;;;;;;;2.80;1.60;;;;;;;22.47;44.11;101331.72;16132775;19;129502;-62
2022/09/12 11:14:55;;;;;;;1.30;1.20;;;;;;;22.47;43.87;101331.72;16131422;19;129008;-63
2022/09/12 11:20:29;;;;;;;1.67;1.58;;;;;;;22.44;44.08;101321.94;16133235;19;129290;-63
2022/09/12 11:25:53;;;;;;;1.75;1.50;;;;;;;22.44;44.30;101317.19;16133122;19;129380;-63
2022/09/12 11:31:23;;;;;;;1.95;1.70;;;;;;;22.46;43.88;101313.31;16134865;19;129519;-62
2022/09/12 11:37:02;;;;;;;1.70;1.52;;;;;;;22.44;43.91;101302.44;16133279;19;129683;-63
2022/09/12 11:42:38;;;;;;;1.80;1.20;;;;;;;22.41;43.98;101303.78;16129493;19;129734;-63
2022/09/12 11:48:06;;;;;;;1.60;1.30;;;;;;;22.43;44.10;101317.47;16131716;19;129602;-63
2022/09/12 11:53:34;;;;;;;1.42;1.33;;;;;;;22.42;43.83;101311.03;16128324;19;129570;-63
2022/09/12 11:59:08;;;;;;;1.75;1.30;;;;;;;22.42;43.92;101318.56;16132134;19;129366;-63
2022/09/12 12:04:45;;;;;;;1.55;1.35;;;;;;;22.40;44.29;101302.09;16124736;19;129662;-62
2022/09/12 12:10:26;;;;;;;1.70;1.52;;;;;;;22.41;44.05;101303.78;16129502;19;129389;-63
2022/09/12 12:15:53;;;;;;;1.40;1.30;;;;;;;22.39;43.93;101300.44;16131342;19;129284;-63
2022/09/12 12:21:30;;;;;;;2.08;1.45;;;;;;;22.37;43.98;101294.28;16130430;19;130245;-63
2022/09/12 12:26:52;;;;;;;1.38;1.27;;;;;;;22.38;44.22;101293.19;16129872;19;129463;-62
2022/09/12 12:32:18;;;;;;;1.60;1.42;;;;;;;22.39;44.20;101288.44;16128430;19;129072;-62
2022/09/12 12:37:40;;;;;;;1.42;1.20;;;;;;;22.38;44.36;101272.81;16129400;19;129619;-63
2022/09/12 12:43:25;;;;;;;1.88;1.20;;;;;;;22.39;44.06;101277.28;16127510;19;129683;-62
2022/09/12 12:49:05;;;;;;;2.88;1.30;;;;;;;22.40;43.98;101278.97;16128380;19;130089;-63
2022/09/12 12:54:38;;;;;;;1.92;1.40;;;;;;;22.39;43.98;101261.41;16126838;19;129498;-63
2022/09/12 13:00:34;;;;;;;3.58;1.42;;;;;;;22.37;43.88;101260.81;16127146;19;129365;-62
2022/09/12 13:06:01;;;;;;;1.33;1.20;;;;;;;22.38;44.29;101265.31;16124296;19;133612;-62
2022/09/12 13:11:41;;;;;;;1.50;1.40;;;;;;;22.39;44.09;101253.06;16124556;19;129590;-63
2022/09/12 13:17:05;;;;;;;2.53;1.30;;;;;;;22.39;43.97;101252.19;16129254;19;129857;-62
2022/09/12 13:22:44;;;;;;;1.60;1.50;;;;;;;22.40;44.20;101245.50;16139349;19;131019;-62
2022/09/12 13:28:17;;;;;;;1.30;1.20;;;;;;;22.39;43.69;101241.91;16138546;19;130877;-63
2022/09/12 13:33:59;;;;;;;1.90;1.17;;;;;;;22.41;43.76;101231.28;16140092;19;129410;-62
2022/09/12 13:39:33;;;;;;;1.60;1.20;;;;;;;22.40;44.03;101224.03;16139863;19;129586;-63
2022/09/12 13:45:01;;;;;;;1.30;1.00;;;;;;;22.38;44.01;101217.91;16138912;19;129776;-63
2022/09/12 13:50:25;;;;;;;1.23;1.13;;;;;;;22.39;43.71;101213.16;16138581;19;130216;-63
2022/09/12 13:55:50;;;;;;;1.30;1.08;;;;;;;22.40;43.80;101198.94;16138963;19;129375;-62
2022/09/12 14:01:14;;;;;;;1.40;1.30;;;;;;;22.39;43.94;101193.66;16139270;19;128922;-61
2022/09/12 14:06:44;;;;;;;1.15;1.08;;;;;;;22.41;43.97;101192.28;16139727;19;129225;-62
2022/09/12 14:12:40;;;;;;;1.63;1.30;;;;;;;22.40;43.84;101187.81;16138562;19;129325;-63
2022/09/12 14:18:05;;;;;;;1.40;1.30;;;;;;;22.40;44.15;101187.81;16136726;19;129268;-62
2022/09/12 14:23:28;;;;;;;;;;;;;;;22.37;44.00;101184.72;16146349;19;129143;-63
2022/09/12 14:28:50;;;;;;;1.33;1.23;;;;;;;22.40;44.20;101179.44;16153935;19;129190;-62
2022/09/12 14:34:17;;;;;;;1.40;1.30;;;;;;;22.40;44.26;101179.44;16151153;19;128948;-61
2022/09/12 14:39:43;;;;;;;2.13;1.17;;;;;;;22.40;43.94;101171.06;16155183;19;129039;-62
2022/09/12 14:45:16;;;;;;;1.50;1.40;;;;;;;22.41;43.63;101152.41;16155737;19;129666;-63
2022/09/12 14:50:38;;;;;;;1.75;1.35;;;;;;;22.41;43.79;101161.59;16154625;19;129669;-62
2022/09/12 14:56:10;;;;;;;1.58;1.20;;;;;;;22.41;43.76;101150.47;16151722;19;129470;-64
2022/09/12 15:01:32;;;;;;;1.10;1.00;;;;;;;22.38;43.91;101137.06;16133144;19;130002;-65
2022/09/12 15:06:53;;;;;;;1.75;1.10;;;;;;;22.40;44.13;101151.56;16133399;19;129193;-65
2022/09/12 15:12:15;;;;;;;1.70;1.30;;;;;;;22.43;44.31;101139.88;16129603;19;129616;-64
2022/09/12 15:17:37;;;;;;;2.80;1.50;;;;;;;22.48;44.43;101138.25;16135405;19;129578;-64
2022/09/12 15:22:59;;;;;;;6.88;1.85;;;;;;;22.50;44.35;101136.88;16131814;19;129559;-63
2022/09/12 15:28:22;;;;;;;6.50;1.52;;;;;;;22.53;44.20;101127.13;16134263;19;136914;-63
2022/09/12 15:33:44;;;;;;;2.95;1.67;;;;;;;22.50;44.46;101111.78;16131287;19;129958;-69
2022/09/12 15:39:08;;;;;;;7.18;2.92;;;;;;;22.49;44.32;101115.66;16128958;19;129129;-70
2022/09/12 15:44:29;;;;;;;6.95;2.60;;;;;;;22.47;44.17;101111.47;16130104;19;129444;-73
2022/09/12 15:49:51;;;;;;;8.32;3.08;;;;;;;22.47;44.30;101105.91;16130805;19;128941;-72
2022/09/12 15:55:22;;;;;;;8.68;3.10;;;;;;;22.47;44.35;101100.34;16129665;19;129058;-66
2022/09/12 16:00:44;;;;;;;6.95;3.15;;;;;;;22.46;44.21;101104.22;16129618;19;129409;-64
2022/09/12 16:06:08;;;;;;;7.97;3.00;;;;;;;22.44;44.15;101101.72;16129724;19;129745;-71
2022/09/12 16:11:29;;;;;;;7.10;3.22;;;;;;;22.43;44.26;101092.50;16127615;19;129626;-65
2022/09/12 16:16:53;;;;;;;11.90;3.70;;;;;;;22.43;44.09;101078.56;16129049;19;129461;-63
2022/09/12 16:22:14;;;;;;;7.72;3.97;;;;;;;22.43;43.98;101072.16;16124580;19;129849;-65
2022/09/12 16:27:36;;;;;;;5.97;3.70;;;;;;;22.41;44.14;101064.03;16130045;19;129765;-63
2022/09/12 16:32:58;;;;;;;11.93;3.53;;;;;;;22.41;44.47;101047.31;16127482;19;129653;-63
2022/09/12 16:38:21;;;;;;;8.95;3.70;;;;;;;22.41;43.83;101052.06;16126813;19;131310;-63
2022/09/12 16:43:44;;;;;;;8.55;3.35;;;;;;;22.42;43.29;101037.84;16129134;19;129923;-63
2022/09/12 16:49:06;;;;;;;7.82;3.13;;;;;;;22.43;43.36;101031.16;16126042;19;129146;-63
2022/09/12 16:54:27;;;;;;;4.60;2.22;;;;;;;22.43;42.78;101028.38;16124562;19;129536;-62
2022/09/12 16:59:49;;;;;;;7.13;2.40;;;;;;;22.46;42.57;101023.38;16125478;19;129475;-62
2022/09/12 17:05:11;;;;;;;3.25;1.92;;;;;;;22.45;42.51;101014.19;16124384;19;129241;-62
2022/09/12 17:10:33;;;;;;;4.30;1.90;;;;;;;22.46;42.50;101015.03;16125831;19;129602;-63
2022/09/12 17:15:55;;;;;;;2.67;1.90;;;;;;;22.45;42.44;101022.56;16127459;19;129394;-62
2022/09/12 17:21:17;;;;;;;4.22;1.92;;;;;;;22.44;42.70;101024.50;16120926;19;129338;-62
2022/09/12 17:26:39;;;;;;;4.80;1.70;;;;;;;22.43;42.62;101016.41;16126399;19;129749;-62
2022/09/12 17:32:01;;;;;;;3.53;1.83;;;;;;;22.42;42.52;101004.41;16124781;19;130141;-63
2022/09/12 17:37:23;;;;;;;5.22;1.75;;;;;;;22.42;42.37;101000.78;16122268;19;129140;-63
2022/09/12 17:42:44;;;;;;;3.55;1.65;;;;;;;22.40;42.74;100994.63;16124152;19;129342;-63
2022/09/12 17:48:10;;;;;;;2.88;1.55;;;;;;;22.38;42.70;101008.84;16122564;19;129415;-63
2022/09/12 17:53:33;;;;;;;2.63;1.60;;;;;;;22.38;42.78;101019.16;16122650;19;129946;-63
2022/09/12 17:58:56;;;;;;;4.07;1.55;;;;;;;22.36;42.84;101013.84;16121158;19;129341;-63
2022/09/12 18:04:18;;;;;;;4.82;1.65;;;;;;;22.35;42.87;101020.53;16126297;19;129620;-63
2022/09/12 18:09:40;;;;;;;3.53;1.73;;;;;;;22.36;43.50;101027.78;16136444;19;129561;-63
2022/09/12 18:15:02;;;;;;;5.75;1.75;;;;;;;22.36;43.39;101021.38;16133463;19;129981;-63
2022/09/12 18:20:24;;;;;;;9.80;2.15;;;;;;;22.34;43.66;101010.50;16135946;19;129729;-63
2022/09/12 18:25:45;;;;;;;6.05;1.38;;;;;;;22.34;43.89;101002.13;16134142;19;129016;-63
2022/09/12 18:31:14;;;;;;;9.48;1.70;;;;;;;22.35;43.80;101012.19;16134598;19;130636;-63
2022/09/12 18:36:35;;;;;;;10.45;4.53;;;;;;;22.33;44.40;101005.22;16135281;19;134147;-63
2022/09/12 18:41:57;;;;;;;32.30;17.02;;;;;;;22.32;44.29;101004.34;16132742;19;129572;-65
2022/09/12 18:47:19;;;;;;;45.97;14.73;;;;;;;22.31;44.19;101002.66;16135780;19;128990;-65
2022/09/12 18:52:40;;;;;;;41.15;12.85;;;;;;;22.34;44.63;101006.88;16139649;19;133347;-57
2022/09/12 18:58:02;;;;;;;24.00;11.65;;;;;;;22.38;44.69;101008.84;16134271;19;129931;-62
2022/09/12 19:03:24;;;;;;;32.88;13.88;;;;;;;22.38;45.19;101003.28;16137402;19;130872;-62
2022/09/12 19:08:46;;;;;;;29.10;14.05;;;;;;;22.41;44.99;101008.28;16136260;19;129806;-60
2022/09/12 19:14:08;;;;;;;35.70;14.25;;;;;;;22.42;45.04;100984.88;16135718;19;129123;-62
2022/09/12 19:19:30;;;;;;;33.63;16.15;;;;;;;22.46;44.70;100989.94;16136173;19;129190;-64
2022/09/12 19:24:51;;;;;;;30.67;16.23;;;;;;;22.47;44.94;100995.22;16135283;19;129605;-62
2022/09/12 19:30:13;;;;;;;32.13;16.73;;;;;;;22.49;44.84;101009.72;16129294;19;130970;-65
2022/09/12 19:35:35;;;;;;;39.50;17.48;;;;;;;22.50;44.95;101014.19;16133655;19;129446;-61
2022/09/12 19:40:59;;;;;;;30.17;17.08;;;;;;;22.53;44.83;100994.16;16130138;19;129470;-60
2022/09/12 19:46:23;;;;;;;34.28;18.10;;;;;;;22.54;44.87;100986.63;16129416;19;131123;-67
2022/09/12 19:51:44;;;;;;;34.20;18.25;;;;;;;22.55;45.16;100982.72;16130659;19;129218;-61
2022/09/12 19:57:06;;;;;;;33.33;16.70;;;;;;;22.57;44.56;100984.16;16135520;19;129288;-60
2022/09/12 20:02:28;;;;;;;51.90;18.27;;;;;;;22.58;44.99;100979.41;16128507;19;129879;-62
2022/09/12 20:07:50;;;;;;;35.47;17.40;;;;;;;22.60;44.68;100977.19;16128705;19;129361;-59
2022/09/12 20:13:12;;;;;;;29.92;16.67;;;;;;;22.62;44.97;100982.47;16128994;19;129311;-60
2022/09/12 20:18:34;;;;;;;36.38;17.52;;;;;;;22.62;45.23;100980.53;16124240;19;130139;-64
2022/09/12 20:24:01;;;;;;;35.70;17.20;;;;;;;22.65;44.84;100963.22;16128027;19;130480;-60
2022/09/12 20:29:23;;;;;;;43.45;18.48;;;;;;;22.65;44.97;100963.22;16124264;19;129837;-67
2022/09/12 20:34:45;;;;;;;33.85;16.70;;;;;;;22.67;45.04;100974.97;16133226;19;129280;-66
2022/09/12 20:40:07;;;;;;;33.30;17.52;;;;;;;22.69;45.29;100975.53;16131534;19;129281;-63
2022/09/12 20:45:29;;;;;;;34.30;17.80;;;;;;;22.70;44.98;100999.53;16133368;19;129324;-63
2022/09/12 20:50:51;;;;;;;34.50;17.92;;;;;;;22.70;45.22;100982.78;16134079;19;129648;-61
2022/09/12 20:56:13;;;;;;;42.85;18.48;;;;;;;22.71;45.21;100987.25;16128132;19;129019;-66
2022/09/12 21:01:35;;;;;;;34.88;18.63;;;;;;;22.72;44.76;101000.09;16166953;19;128947;-65
2022/09/12 21:06:57;;;;;;;35.30;17.98;;;;;;;22.73;45.18;100992.56;16164659;19;129955;-63
2022/09/12 21:12:19;;;;;;;32.33;16.92;;;;;;;22.73;44.92;100995.34;16164046;19;130333;-66
2022/09/12 21:17:40;;;;;;;32.58;17.30;;;;;;;22.74;45.12;100994.22;16144422;19;130403;-62
2022/09/12 21:23:02;;;;;;;28.55;16.45;;;;;;;22.74;45.04;101011.81;16131031;19;129660;-64
2022/09/12 21:28:24;;;;;;;38.70;16.50;;;;;;;22.75;45.07;101023.81;16135835;19;129679;-68
2022/09/12 21:33:46;;;;;;;35.10;16.10;;;;;;;22.74;44.56;101022.97;16142746;19;129477;-69
2022/09/12 21:39:08;;;;;;;28.35;16.25;;;;;;;22.73;44.89;101026.88;16148448;19;129391;-69
2022/09/12 21:44:29;;;;;;;28.02;14.60;;;;;;;22.68;44.86;101029.63;16157815;19;129671;-68
2022/09/12 21:49:51;;;;;;;32.97;15.70;;;;;;;22.64;44.89;101024.88;16159590;19;129304;-68
2022/09/12 21:55:13;;;;;;;26.88;14.80;;;;;;;22.64;45.21;101036.03;16159441;19;129235;-69
2022/09/12 22:00:35;;;;;;;28.83;14.25;;;;;;;22.60;45.02;101030.16;16159252;19;128960;-68
2022/09/12 22:06:02;;;;;;;27.50;14.73;;;;;;;22.58;45.15;101018.44;16159436;19;129487;-68
2022/09/12 22:11:23;;;;;;;25.95;15.60;;;;;;;22.55;44.86;101018.97;16154868;19;129112;-68
2022/09/12 22:16:45;;;;;;;32.03;15.55;;;;;;;22.54;45.12;101017.28;16156068;19;129503;-68
2022/09/12 22:27:47;;;;;;;27.27;14.88;;;;;;;22.49;45.18;101011.69;16154518;19;129807;-70
2022/09/12 22:33:09;;;;;;;22.85;13.50;;;;;;;22.49;44.85;100997.75;16156227;19;129914;-68
2022/09/12 22:38:31;;;;;;;24.85;13.98;;;;;;;22.48;44.82;100996.06;16155156;19;130112;-68
2022/09/12 22:43:53;;;;;;;26.70;13.95;;;;;;;22.49;45.00;100993.00;16153500;19;130112;-68
2022/09/12 22:49:15;;;;;;;24.77;13.20;;;;;;;22.47;45.08;100977.66;16152478;19;129552;-67
2022/09/12 22:54:36;;;;;;;22.20;12.98;;;;;;;22.47;44.80;100963.72;16157568;19;129599;-68
2022/09/12 22:59:58;;;;;;;23.00;13.23;;;;;;;22.42;45.01;100959.81;16143713;19;130577;-68
2022/09/12 23:05:20;;;;;;;22.75;12.80;;;;;;;22.42;45.02;100968.16;16146829;19;129408;-68
2022/09/12 23:10:42;;;;;;;24.90;13.40;;;;;;;22.42;45.07;100965.38;16142704;19;129438;-67
2022/09/12 23:16:06;;;;;;;18.90;12.50;;;;;;;22.43;45.06;100955.91;16141641;19;130146;-68
2022/09/12 23:21:28;;;;;;;22.38;12.90;;;;;;;22.43;44.87;100969.03;16139001;19;129272;-68
2022/09/12 23:26:50;;;;;;;22.80;12.73;;;;;;;22.40;45.15;100967.59;16197551;19;129588;-68
2022/09/12 23:32:12;;;;;;;20.45;12.70;;;;;;;22.41;45.09;100968.44;16214989;19;129507;-67
2022/09/12 23:37:33;;;;;;;19.90;12.35;;;;;;;22.40;44.67;100964.81;16216275;19;130209;-67
2022/09/12 23:42:55;;;;;;;17.42;11.52;;;;;;;22.40;44.65;100950.88;16216352;19;128615;-68
2022/09/12 23:48:17;;;;;;;20.00;12.38;;;;;;;22.41;45.07;100962.88;16214922;19;129861;-68
2022/09/12 23:53:39;;;;;;;20.05;12.00;;;;;;;22.37;44.77;100965.38;16215522;19;129491;-68
2022/09/12 23:59:01;;;;;;;18.40;11.57;;;;;;;22.37;45.18;100961.72;16214024;19;129640;-68
